Time;durP1;ratioP1;P1;durP2;ratioP2;P2;SDS_P1;SDS_P2;PMS_P1;PMS_P2;Temp;Humidity;BMP_temperature;BMP_pressure;BME280_temperature;BME280_humidity;BME280_pressure;Samples;Min_cycle;Max_cycle;Signal;HPM_P1;HPM_P2
2022/05/27 00:02:14;;;;;;;11.80;10.60;;;;;;;-143.84;79.78;45062.41;5091409;28;20691;-75
2022/05/27 00:04:41;;;;;;;13.83;10.20;;;;;;;-143.84;80.29;45070.00;5091496;28;20848;-75
2022/05/27 00:07:09;;;;;;;12.23;10.47;;;;;;;-143.84;80.42;45039.53;5091597;28;20444;-74
2022/05/27 00:09:37;;;;;;;11.63;10.63;;;;;;;-143.84;80.71;45052.88;5090980;28;20440;-74
2022/05/27 00:12:04;;;;;;;10.47;9.37;;;;;;;-143.84;80.76;45087.16;5090328;28;20472;-74
2022/05/27 00:14:32;;;;;;;10.60;9.60;;;;;;;-143.84;80.01;45041.44;5090530;28;20479;-74
2022/05/27 00:16:59;;;;;;;9.17;8.33;;;;;;;-143.84;79.94;45073.81;5091456;28;21018;-74
2022/05/27 00:19:26;;;;;;;9.97;9.00;;;;;;;-143.84;79.65;45079.53;5090490;28;20440;-75
2022/05/27 00:21:53;;;;;;;10.40;9.30;;;;;;;-143.84;80.19;45079.53;5090999;28;20508;-74
2022/05/27 00:24:22;;;;;;;11.03;9.87;;;;;;;-143.84;80.80;45090.97;5090985;28;20448;-74
2022/05/27 00:26:49;;;;;;;11.30;9.00;;;;;;;-143.84;81.23;45066.22;5090688;28;20489;-74
2022/05/27 00:29:17;;;;;;;10.23;8.50;;;;;;;-143.84;81.07;45050.97;5090609;28;20440;-74
2022/05/27 00:31:45;;;;;;;8.30;7.53;;;;;;;-143.84;81.16;45068.13;5090570;28;20505;-74
2022/05/27 00:34:13;;;;;;;8.63;7.93;;;;;;;-143.84;80.84;45039.53;5090699;28;20448;-74
2022/05/27 00:36:40;;;;;;;9.83;8.87;;;;;;;-143.84;80.76;45064.31;5090667;28;21077;-74
2022/05/27 00:39:07;;;;;;;13.50;7.90;;;;;;;-143.84;80.81;45056.69;5090657;28;20466;-74
2022/05/27 00:41:36;;;;;;;8.73;8.13;;;;;;;-143.84;80.70;45073.81;5090936;28;20494;-74
2022/05/27 00:44:04;;;;;;;10.90;7.27;;;;;;;-143.84;80.96;45062.41;5090495;28;20456;-74
2022/05/27 00:46:34;;;;;;;7.97;7.17;;;;;;;-143.84;80.90;45087.16;5090358;28;20999;-74
2022/05/27 00:49:06;;;;;;;9.53;7.40;;;;;;;-143.84;80.37;45083.34;5090466;28;20800;-74
2022/05/27 00:51:35;;;;;;;17.57;9.10;;;;;;;-143.84;80.73;45077.63;5089674;28;20494;-74
2022/05/27 00:54:08;;;;;;;7.83;7.17;;;;;;;-143.84;81.04;45092.88;5089876;28;20444;-74
2022/05/27 00:56:42;;;;;;;10.93;7.40;;;;;;;-143.84;81.25;45054.78;5090168;28;20432;-74
2022/05/27 00:59:19;;;;;;;10.20;7.47;;;;;;;-143.84;81.02;45060.50;5090008;28;20448;-74
2022/05/27 01:01:46;;;;;;;7.23;6.53;;;;;;;-143.84;81.34;45064.31;5089980;28;20447;-74
2022/05/27 01:04:13;;;;;;;8.03;7.17;;;;;;;-143.84;81.10;45066.22;5090137;28;20446;-74
2022/05/27 01:06:40;;;;;;;8.53;7.60;;;;;;;-143.84;81.22;45087.16;5089632;28;20502;-74
2022/05/27 01:09:08;;;;;;;7.60;6.90;;;;;;;-143.84;81.36;45054.78;5089022;28;20824;-74
2022/05/27 01:11:57;;;;;;;9.47;7.23;;;;;;;-143.84;81.36;45075.72;5089040;28;20487;-74
2022/05/27 01:14:34;;;;;;;6.90;6.20;;;;;;;-143.84;80.79;45052.88;5089733;28;20604;-75
2022/05/27 01:17:10;;;;;;;13.90;6.67;;;;;;;-143.84;81.07;45090.97;5089695;28;20451;-74
2022/05/27 01:20:19;;;;;;;7.10;6.40;;;;;;;-143.84;81.38;45068.13;5089897;28;20436;-74
2022/05/27 01:23:13;;;;;;;6.60;6.00;;;;;;;-143.84;81.61;45073.81;5089926;28;20432;-74
2022/05/27 01:26:12;;;;;;;8.40;6.60;;;;;;;-143.84;81.36;45094.78;5089731;28;20511;-74
2022/05/27 01:28:46;;;;;;;8.87;6.93;;;;;;;-143.84;81.71;45083.34;5089435;28;21002;-74
2022/05/27 01:31:37;;;;;;;6.93;6.43;;;;;;;-143.84;82.00;45075.72;5088934;28;20931;-74
2022/05/27 01:34:14;;;;;;;7.37;6.70;;;;;;;-143.84;82.14;45075.72;5088945;28;20444;-74
2022/05/27 01:36:48;;;;;;;8.70;7.27;;;;;;;-143.84;83.08;45073.81;5089380;28;20440;-74
2022/05/27 01:39:25;;;;;;;8.27;7.20;;;;;;;-143.84;83.07;45068.13;5089628;28;20435;-74
2022/05/27 01:42:01;;;;;;;7.07;6.37;;;;;;;-143.84;82.98;45083.34;5089178;28;20454;-74
2022/05/27 01:44:32;;;;;;;7.80;6.83;;;;;;;-143.84;82.88;45070.00;5089251;28;20436;-75
2022/05/27 01:47:04;;;;;;;9.70;7.60;;;;;;;-143.84;82.88;45056.69;5089539;28;20946;-74
2022/05/27 01:49:36;;;;;;;9.77;7.50;;;;;;;-143.84;82.85;45062.41;5089883;28;20440;-74
2022/05/27 01:52:07;;;;;;;12.93;7.73;;;;;;;-143.84;82.58;45066.22;5089443;28;20476;-74
2022/05/27 01:54:44;;;;;;;8.73;7.77;;;;;;;-143.84;82.50;45056.69;5089426;28;20450;-74
2022/05/27 01:57:16;;;;;;;10.40;7.60;;;;;;;-143.84;83.26;45075.72;5089338;28;21008;-74
2022/05/27 02:00:01;;;;;;;7.70;6.70;;;;;;;-143.84;83.49;45066.22;5089183;28;20432;-74
2022/05/27 02:02:32;;;;;;;7.67;7.00;;;;;;;-143.84;83.44;45083.34;5089094;28;20925;-74
2022/05/27 02:05:04;;;;;;;7.80;6.43;;;;;;;-143.84;83.65;45068.13;5089123;28;20508;-74
2022/05/27 02:07:37;;;;;;;7.03;6.43;;;;;;;-143.84;83.95;45068.13;5088887;28;20440;-74
2022/05/27 02:10:10;;;;;;;7.50;6.67;;;;;;;-143.84;83.74;45064.31;5088826;28;20451;-74
2022/05/27 02:12:41;;;;;;;7.40;6.70;;;;;;;-143.84;83.73;45066.22;5088727;28;20483;-74
2022/05/27 02:15:14;;;;;;;8.20;7.47;;;;;;;-143.84;82.91;45070.00;5088488;28;20548;-74
2022/05/27 02:17:47;;;;;;;10.53;7.03;;;;;;;-143.84;83.49;45090.97;5088176;28;20436;-74
2022/05/27 02:20:17;;;;;;;7.70;7.00;;;;;;;-143.84;83.35;45085.25;5088649;28;20478;-74
2022/05/27 02:22:50;;;;;;;8.50;7.70;;;;;;;-143.84;83.40;45071.91;5089021;28;20501;-74
2022/05/27 02:25:22;;;;;;;10.17;8.47;;;;;;;-143.84;83.12;45087.16;5088730;28;20451;-74
2022/05/27 02:27:55;;;;;;;7.93;7.23;;;;;;;-143.84;82.79;45068.13;5088829;28;20486;-74
2022/05/27 02:30:29;;;;;;;8.30;7.07;;;;;;;-143.84;83.07;45090.97;5089881;28;20428;-75
2022/05/27 02:35:50;;;;;;;13.03;8.40;;;;;;;-143.84;83.05;45081.44;5088526;28;20474;-75
2022/05/27 02:38:18;;;;;;;9.33;8.10;;;;;;;-143.84;83.01;45096.66;5089412;28;20527;-76
2022/05/27 02:40:55;;;;;;;10.83;7.93;;;;;;;-143.84;82.89;45081.44;5089923;28;20496;-76
2022/05/27 02:43:38;;;;;;;8.50;7.60;;;;;;;-143.84;82.60;45075.72;5091450;28;20810;-76
2022/05/27 02:46:19;;;;;;;7.60;6.90;;;;;;;-143.84;82.34;45054.78;5093417;28;20873;-76
2022/05/27 02:48:59;;;;;;;8.50;7.67;;;;;;;-143.84;82.14;45094.78;5093717;28;21332;-76
2022/05/27 02:51:35;;;;;;;9.90;9.00;;;;;;;-143.84;82.30;45085.25;5093154;28;20482;-76
2022/05/27 02:54:10;;;;;;;9.57;8.67;;;;;;;-143.84;82.43;45079.53;5093556;28;20443;-76
2022/05/27 02:56:43;;;;;;;12.03;9.60;;;;;;;-143.84;82.67;45068.13;5092000;28;20439;-76
2022/05/27 02:59:15;;;;;;;9.67;8.73;;;;;;;-143.84;82.67;45058.59;5092531;28;20926;-74
2022/05/27 03:01:43;;;;;;;9.33;8.17;;;;;;;-143.84;82.92;45062.41;5097882;28;20504;-74
2022/05/27 03:04:12;;;;;;;12.07;8.60;;;;;;;-143.84;83.06;45071.91;5098126;28;20509;-73
2022/05/27 03:06:50;;;;;;;9.43;8.23;;;;;;;-143.84;83.04;45079.53;5092201;28;20852;-72
2022/05/27 03:09:23;;;;;;;13.90;9.10;;;;;;;-143.84;83.12;45094.78;5091968;28;20428;-72
2022/05/27 03:12:02;;;;;;;12.37;9.07;;;;;;;-143.84;83.29;45083.34;5100725;28;20474;-72
2022/05/27 03:14:55;;;;;;;12.10;9.50;;;;;;;-143.84;83.07;45071.91;5092768;28;20565;-74
2022/05/27 03:17:34;;;;;;;11.90;9.07;;;;;;;-143.84;83.04;45075.72;5092069;28;20447;-74
2022/05/27 03:20:24;;;;;;;10.00;8.97;;;;;;;-143.84;83.08;45056.69;5088867;28;20439;-74
2022/05/27 03:23:07;;;;;;;10.83;9.10;;;;;;;-143.84;83.44;45064.31;5089156;28;20455;-74
2022/05/27 03:25:40;;;;;;;10.63;9.63;;;;;;;-143.84;83.22;45070.00;5091678;28;20462;-74
2022/05/27 03:28:14;;;;;;;9.20;8.40;;;;;;;-143.84;83.32;45075.72;5091519;28;20447;-73
2022/05/27 03:30:51;;;;;;;8.87;8.03;;;;;;;-143.84;83.08;45049.06;5092005;28;20886;-74
2022/05/27 03:33:26;;;;;;;8.73;7.40;;;;;;;-143.84;82.87;45022.41;5091719;28;20443;-74
2022/05/27 03:35:58;;;;;;;9.67;6.43;;;;;;;-143.84;79.98;45056.69;5091712;28;20830;-75
2022/05/27 03:38:32;;;;;;;8.10;7.43;;;;;;;-143.84;78.68;45052.88;5089281;28;20444;-71
2022/05/27 03:41:04;;;;;;;7.50;6.60;;;;;;;-143.84;77.04;45037.66;5096796;28;20444;-71
2022/05/27 03:43:33;;;;;;;7.07;6.37;;;;;;;-143.84;74.18;45050.97;5096146;28;20436;-70
2022/05/27 03:46:02;;;;;;;6.47;5.80;;;;;;;-143.84;70.61;45033.84;5091368;28;20958;-70
2022/05/27 03:48:32;;;;;;;6.57;6.00;;;;;;;-143.84;66.75;45026.22;5089083;28;20885;-70
2022/05/27 03:51:08;;;;;;;5.73;5.23;;;;;;;-143.84;63.67;45026.22;5088369;28;20437;-70
2022/05/27 03:56:19;;;;;;;6.60;4.83;;;;;;;-143.84;58.36;45003.38;5073508;28;20506;-70
2022/05/27 03:58:46;;;;;;;9.43;4.23;;;;;;;-143.84;56.06;45010.97;5089221;28;20505;-71
2022/05/27 04:01:13;;;;;;;5.27;4.57;;;;;;;-143.84;55.97;44980.53;5091375;28;20439;-71
2022/05/27 04:03:40;;;;;;;4.67;4.27;;;;;;;-143.84;53.32;44990.03;5084718;28;20524;-71
2022/05/27 04:06:09;;;;;;;9.67;4.83;;;;;;;-143.84;53.46;44976.72;5089633;28;20509;-72
2022/05/27 04:08:36;;;;;;;9.40;4.90;;;;;;;-143.84;53.04;44982.41;5091104;28;20929;-71
2022/05/27 04:11:03;;;;;;;7.30;4.53;;;;;;;-143.84;52.74;44984.31;5090827;28;20448;-71
2022/05/27 04:13:30;;;;;;;7.90;4.40;;;;;;;-143.84;51.75;44988.13;5090997;28;20428;-71
2022/05/27 04:15:57;;;;;;;5.60;5.07;;;;;;;-143.84;51.87;45010.97;5110721;28;20478;-72
2022/05/27 04:18:25;;;;;;;8.17;4.47;;;;;;;-143.84;50.83;45005.28;5110846;28;20960;-72
2022/05/27 04:20:52;;;;;;;4.93;4.43;;;;;;;-143.84;50.20;44971.00;5110489;28;21025;-72
2022/05/27 04:23:20;;;;;;;4.80;4.20;;;;;;;-143.84;50.16;44988.13;5110780;28;20485;-71
2022/05/27 04:25:48;;;;;;;10.63;4.70;;;;;;;-143.84;49.65;44978.63;5111171;28;20932;-71
2022/05/27 04:28:15;;;;;;;4.90;4.40;;;;;;;-143.84;49.02;45003.38;5111214;28;20433;-71
2022/05/27 04:30:45;;;;;;;5.00;4.50;;;;;;;-143.84;49.59;45005.28;5111116;28;20443;-71
2022/05/27 04:33:12;;;;;;;4.80;4.40;;;;;;;-143.84;49.11;44988.13;5111205;28;20839;-71
2022/05/27 04:35:40;;;;;;;4.50;4.10;;;;;;;-143.84;49.75;45001.47;5110964;28;20439;-71
2022/05/27 04:38:07;;;;;;;5.00;4.43;;;;;;;-143.84;50.64;45018.59;5110915;28;20759;-71
2022/05/27 04:40:36;;;;;;;5.00;4.57;;;;;;;-143.84;50.34;44961.47;5110908;28;20500;-72
2022/05/27 04:43:03;;;;;;;6.37;5.10;;;;;;;-143.84;50.49;44963.38;5110876;27;20455;-72
2022/05/27 04:45:31;;;;;;;5.80;4.90;;;;;;;-143.84;50.94;44991.94;5110486;28;20496;-72
2022/05/27 04:47:58;;;;;;;6.53;5.10;;;;;;;-143.84;50.98;44986.22;5110584;28;20431;-71
2022/05/27 04:50:27;;;;;;;5.20;4.37;;;;;;;-143.84;48.88;44957.66;5110493;28;20461;-71
2022/05/27 04:52:54;;;;;;;12.80;6.00;;;;;;;-143.84;47.98;44999.56;5110826;28;20940;-72
2022/05/27 04:55:22;;;;;;;7.30;5.60;;;;;;;-143.84;48.91;44969.09;5110356;27;20499;-71
2022/05/27 04:57:53;;;;;;;9.23;6.10;;;;;;;-143.84;48.23;44951.97;5110545;28;20443;-71
2022/05/27 05:00:22;;;;;;;8.00;6.20;;;;;;;-143.84;48.72;44982.41;5110884;28;20579;-71
2022/05/27 05:02:50;;;;;;;7.87;5.90;;;;;;;-143.84;49.65;44980.53;5110866;28;20439;-71
2022/05/27 05:05:18;;;;;;;6.77;5.83;;;;;;;-143.84;49.74;44980.53;5110655;28;20443;-71
2022/05/27 05:07:52;;;;;;;8.67;6.60;;;;;;;-143.84;48.57;44991.94;5109277;28;20512;-71
2022/05/27 05:10:23;;;;;;;12.50;6.50;;;;;;;-143.84;48.62;44974.81;5110466;28;20447;-71
2022/05/27 05:12:52;;;;;;;10.47;7.30;;;;;;;-143.84;49.30;44972.91;5110198;28;20483;-71
2022/05/27 05:15:21;;;;;;;15.57;7.40;;;;;;;-143.84;49.68;44957.66;5110074;28;21010;-71
2022/05/27 05:17:48;;;;;;;10.57;7.43;;;;;;;-143.84;50.67;44972.91;5110124;28;20493;-71
2022/05/27 05:20:19;;;;;;;8.90;7.53;;;;;;;-143.84;50.50;44965.28;5110033;28;20435;-71
2022/05/27 05:22:46;;;;;;;9.77;7.80;;;;;;;-143.84;50.45;44951.97;5110414;28;20427;-71
2022/05/27 05:25:13;;;;;;;8.93;8.03;;;;;;;-143.84;50.57;44957.66;5110612;28;20454;-71
2022/05/27 05:27:41;;;;;;;10.87;9.90;;;;;;;-143.84;50.05;45005.28;5109913;28;20535;-71
2022/05/27 05:30:14;;;;;;;14.17;8.77;;;;;;;-143.84;50.28;44974.81;5109360;28;20477;-71
2022/05/27 05:32:41;;;;;;;11.33;9.90;;;;;;;-143.84;49.83;44974.81;5109525;28;20475;-71
2022/05/27 05:35:09;;;;;;;15.90;9.27;;;;;;;-143.84;49.71;44969.09;5109619;28;20929;-71
2022/05/27 05:37:37;;;;;;;18.63;9.00;;;;;;;-143.84;49.26;44974.81;5109664;28;20496;-71
2022/05/27 05:40:05;;;;;;;12.40;10.37;;;;;;;-143.84;48.65;44978.63;5109992;28;20559;-74
2022/05/27 05:42:33;;;;;;;15.10;10.60;;;;;;;-143.84;47.99;44946.25;5109882;27;20435;-74
2022/05/27 05:45:00;;;;;;;11.23;10.07;;;;;;;-143.84;47.19;44967.19;5108961;28;20435;-74
2022/05/27 05:47:29;;;;;;;11.80;9.50;;;;;;;-143.84;47.34;44965.28;5109037;28;20435;-74
2022/05/27 05:49:56;;;;;;;25.23;10.17;;;;;;;-143.84;46.89;44942.44;5109503;28;20451;-74
2022/05/27 05:52:24;;;;;;;14.27;10.07;;;;;;;-143.84;47.71;44978.63;5109394;28;20473;-74
2022/05/27 05:54:51;;;;;;;13.47;10.07;;;;;;;-143.84;46.14;44971.00;5109528;28;20443;-74
2022/05/27 05:57:18;;;;;;;21.00;9.30;;;;;;;-143.84;47.80;44957.66;5109766;28;20447;-74
2022/05/27 05:59:45;;;;;;;12.90;9.93;;;;;;;-143.84;45.54;44948.16;5109612;28;20991;-74
2022/05/27 06:02:12;;;;;;;11.00;8.10;;;;;;;-143.84;44.38;44965.28;5108861;28;21019;-74
2022/05/27 06:04:41;;;;;;;14.97;9.60;;;;;;;-143.84;46.52;44948.16;5108828;28;20439;-74
2022/05/27 06:07:08;;;;;;;10.40;8.30;;;;;;;-143.84;45.49;44976.72;5109151;28;20431;-74
2022/05/27 06:09:35;;;;;;;10.00;7.60;;;;;;;-143.84;45.18;44942.44;5109625;28;20499;-74
2022/05/27 06:12:03;;;;;;;14.73;8.00;;;;;;;-143.84;46.76;44959.56;5109234;28;20470;-74
2022/05/27 06:14:30;;;;;;;20.57;8.73;;;;;;;-143.84;47.03;44961.47;5109247;28;20481;-74
2022/05/27 06:16:58;;;;;;;12.60;7.10;;;;;;;-143.84;45.90;44961.47;5109415;28;20916;-74
2022/05/27 06:19:25;;;;;;;11.03;7.97;;;;;;;-143.84;47.34;44963.38;5115560;27;20435;-74
2022/05/27 06:21:53;;;;;;;12.17;8.80;;;;;;;-143.84;45.72;44927.19;5116292;27;20438;-74
2022/05/27 06:24:20;;;;;;;13.60;7.57;;;;;;;-143.84;46.17;44950.06;5116000;27;20450;-74
2022/05/27 06:26:48;;;;;;;13.33;8.50;;;;;;;-143.84;46.09;44965.28;5116283;27;20439;-74
2022/05/27 06:34:45;;;;;;;9.70;7.60;;;;;;;-143.84;47.50;44931.00;5115390;28;20477;-74
2022/05/27 06:37:17;;;;;;;10.30;8.17;;;;;;;-143.84;45.12;44948.16;5115600;28;20431;-74
2022/05/27 06:39:44;;;;;;;10.87;8.30;;;;;;;-143.84;46.46;44942.44;5115556;28;20446;-74
2022/05/27 06:42:14;;;;;;;13.30;7.73;;;;;;;-143.84;47.06;44967.19;5115564;27;20940;-74
2022/05/27 06:44:42;;;;;;;14.30;8.20;;;;;;;-143.84;46.73;44942.44;5115975;28;20991;-74
2022/05/27 06:47:11;;;;;;;8.93;8.13;;;;;;;-143.84;46.14;44940.53;5116036;27;20435;-74
2022/05/27 06:49:39;;;;;;;9.90;8.90;;;;;;;-143.84;45.81;44986.22;5115706;28;20904;-74
2022/05/27 06:52:08;;;;;;;25.17;8.10;;;;;;;-143.84;46.94;44965.28;5115723;27;20439;-74
2022/05/27 06:54:37;;;;;;;11.73;7.63;;;;;;;-143.84;46.92;44951.97;5115668;27;20446;-74
2022/05/27 06:57:06;;;;;;;19.50;8.77;;;;;;;-143.84;46.95;44944.34;5115894;27;20435;-74
2022/05/27 06:59:34;;;;;;;14.53;7.67;;;;;;;-143.84;46.72;44961.47;5115957;27;20442;-74
2022/05/27 07:02:02;;;;;;;11.07;8.17;;;;;;;-143.84;45.64;44931.00;5115972;27;20430;-74
2022/05/27 07:04:29;;;;;;;10.63;7.63;;;;;;;-143.84;47.32;44963.38;5115917;27;20430;-74
2022/05/27 07:06:57;;;;;;;11.00;6.70;;;;;;;-143.84;46.98;44955.75;5115798;28;20451;-74
2022/05/27 07:09:26;;;;;;;7.83;6.80;;;;;;;-143.84;48.08;44959.56;5115590;28;20496;-74
2022/05/27 07:11:56;;;;;;;9.97;6.43;;;;;;;-143.84;48.59;44961.47;5115386;28;20435;-74
2022/05/27 07:14:23;;;;;;;8.10;6.40;;;;;;;-143.84;48.99;44936.72;5114968;27;21019;-75
2022/05/27 07:16:50;;;;;;;6.83;6.07;;;;;;;-143.84;50.11;44957.66;5115544;27;20445;-74
2022/05/27 07:19:20;;;;;;;7.43;5.97;;;;;;;-143.84;50.01;44972.91;5115630;27;20834;-74
2022/05/27 07:21:49;;;;;;;7.23;5.53;;;;;;;-143.84;48.86;44965.28;5116111;28;20445;-76
2022/05/27 07:24:18;;;;;;;9.50;5.30;;;;;;;-143.84;49.11;44965.28;5116250;27;21111;-76
2022/05/27 07:26:47;;;;;;;11.23;5.37;;;;;;;-143.84;49.78;44969.09;5116269;27;20442;-76
2022/05/27 07:29:16;;;;;;;6.30;5.80;;;;;;;-143.84;48.66;44953.88;5113944;27;20439;-76
2022/05/27 07:31:44;;;;;;;14.40;6.10;;;;;;;-143.84;46.62;44995.75;5113005;28;20455;-76
2022/05/27 07:34:12;;;;;;;9.17;6.17;;;;;;;-143.84;46.95;44950.06;5112825;28;20478;-76
2022/05/27 07:36:39;;;;;;;5.80;5.30;;;;;;;-143.84;47.19;44957.66;5112799;28;20933;-76
2022/05/27 07:39:07;;;;;;;6.10;5.13;;;;;;;-143.84;47.29;44972.91;5112832;28;20944;-76
2022/05/27 07:41:35;;;;;;;5.67;5.17;;;;;;;-143.84;46.28;44961.47;5112781;28;20439;-76
2022/05/27 07:44:03;;;;;;;5.60;5.10;;;;;;;-143.84;45.98;44950.06;5113205;28;20462;-76
2022/05/27 07:46:33;;;;;;;5.03;4.53;;;;;;;-143.84;46.56;44955.75;5112068;28;20542;-76
2022/05/27 07:49:00;;;;;;;5.27;4.80;;;;;;;-143.84;46.78;44940.53;5111837;28;20509;-76
2022/05/27 07:51:28;;;;;;;11.50;5.30;;;;;;;-143.84;45.99;44951.97;5112425;28;20439;-76
2022/05/27 07:53:55;;;;;;;8.00;5.10;;;;;;;-143.84;44.92;44953.88;5112377;28;20497;-76
2022/05/27 07:56:23;;;;;;;9.10;5.23;;;;;;;-143.84;43.61;44972.91;5112688;28;20454;-76
2022/05/27 07:58:50;;;;;;;7.43;4.90;;;;;;;-143.84;44.37;44921.50;5112049;28;20447;-76
2022/05/27 08:01:17;;;;;;;5.90;5.20;;;;;;;-143.84;45.13;44923.41;5112117;28;20431;-76
2022/05/27 08:03:46;;;;;;;8.87;5.10;;;;;;;-143.84;45.72;44980.53;5112168;28;20431;-76
2022/05/27 08:06:14;;;;;;;6.40;5.40;;;;;;;-143.84;46.15;44957.66;5112465;28;20450;-76
2022/05/27 08:08:41;;;;;;;5.80;5.27;;;;;;;-143.84;44.62;44931.00;5112561;28;20477;-76
2022/05/27 08:11:08;;;;;;;6.47;4.93;;;;;;;-143.84;44.24;44971.00;5112144;28;20427;-76
2022/05/27 08:13:36;;;;;;;9.93;4.33;;;;;;;-143.84;43.72;44923.41;5111592;28;20482;-76
2022/05/27 08:16:03;;;;;;;8.93;5.60;;;;;;;-143.84;43.50;44927.19;5111703;27;20435;-76
2022/05/27 08:18:30;;;;;;;8.70;5.30;;;;;;;-143.84;43.92;44942.44;5111308;28;20504;-74
2022/05/27 08:20:59;;;;;;;5.20;4.80;;;;;;;-143.84;43.64;44944.34;5111403;28;20447;-74
2022/05/27 08:23:26;;;;;;;7.67;4.80;;;;;;;-143.84;44.33;44931.00;5111028;28;20447;-74
2022/05/27 08:25:55;;;;;;;7.10;5.60;;;;;;;-143.84;42.65;44955.75;5111259;28;20442;-74
2022/05/27 08:28:24;;;;;;;9.30;5.80;;;;;;;-143.84;43.79;44957.66;5110849;28;20443;-74
2022/05/27 08:30:55;;;;;;;10.90;5.70;;;;;;;-143.84;43.16;44913.88;5111360;28;20508;-74
2022/05/27 08:33:24;;;;;;;6.40;5.07;;;;;;;-143.84;42.62;44913.88;5111110;28;20533;-74
2022/05/27 08:38:39;;;;;;;6.90;5.67;;;;;;;-143.84;42.03;44921.50;5111045;28;20964;-74
2022/05/27 08:41:30;;;;;;;6.97;5.37;;;;;;;-143.84;42.50;44953.88;5110021;28;20476;-74
2022/05/27 08:44:14;;;;;;;9.23;6.97;;;;;;;-143.84;42.20;44946.25;5110650;28;20446;-74
2022/05/27 08:46:51;;;;;;;9.60;5.53;;;;;;;-143.84;42.85;44978.63;5110656;28;20447;-74
2022/05/27 08:49:22;;;;;;;15.97;6.80;;;;;;;-143.84;43.56;44959.56;5110696;28;20439;-74
2022/05/27 08:51:57;;;;;;;6.60;6.00;;;;;;;-143.84;43.53;44953.88;5110664;28;20446;-74
2022/05/27 08:54:34;;;;;;;10.53;7.50;;;;;;;-143.84;42.91;44957.66;5110660;28;20482;-74
2022/05/27 08:59:53;;;;;;;6.90;6.40;;;;;;;-143.84;42.07;44927.19;5110758;28;20426;-74
2022/05/27 09:02:30;;;;;;;12.43;6.50;;;;;;;-143.84;43.24;44942.44;5110610;28;20446;-74
2022/05/27 09:05:07;;;;;;;14.40;7.80;;;;;;;-143.84;42.80;44927.19;5110172;28;20446;-74
2022/05/27 09:07:42;;;;;;;6.70;6.10;;;;;;;-143.84;42.71;44932.91;5110381;28;20473;-74
2022/05/27 09:10:16;;;;;;;9.13;7.90;;;;;;;-143.84;42.02;44923.41;5110187;28;20435;-74
2022/05/27 09:12:49;;;;;;;8.40;7.37;;;;;;;-143.84;42.77;44900.53;5110228;28;20427;-74
2022/05/27 09:15:26;;;;;;;8.50;7.20;;;;;;;-143.84;42.11;44934.81;5109931;27;20475;-74
2022/05/27 09:18:01;;;;;;;7.93;6.60;;;;;;;-143.84;43.54;44940.53;5110369;28;20445;-76
2022/05/27 09:20:49;;;;;;;11.77;7.40;;;;;;;-143.84;42.48;44934.81;5110663;28;20500;-76
2022/05/27 09:23:32;;;;;;;7.90;7.30;;;;;;;-143.84;42.69;44932.91;5110382;28;20482;-76
2022/05/27 09:26:07;;;;;;;7.90;7.30;;;;;;;-143.84;43.30;44915.78;5110479;28;20435;-76
2022/05/27 09:28:45;;;;;;;9.17;7.40;;;;;;;-143.84;41.94;44927.19;5110698;27;20427;-76
2022/05/27 09:31:17;;;;;;;11.73;8.30;;;;;;;-143.84;42.64;44934.81;5109675;28;20436;-76
2022/05/27 09:33:47;;;;;;;8.87;8.07;;;;;;;-143.84;42.96;44923.41;5110205;28;20471;-76
2022/05/27 09:36:18;;;;;;;7.80;7.20;;;;;;;-143.84;42.89;44913.88;5110317;28;20439;-76
2022/05/27 09:38:51;;;;;;;9.67;8.67;;;;;;;-143.84;42.54;44927.19;5110208;27;20439;-76
2022/05/27 09:41:30;;;;;;;8.40;7.57;;;;;;;-143.84;42.83;44946.25;5110299;28;20492;-76
2022/05/27 09:44:21;;;;;;;8.47;7.60;;;;;;;-143.84;43.69;44963.38;5110488;28;20446;-76
2022/05/27 09:46:50;;;;;;;12.87;7.97;;;;;;;-143.84;43.42;44944.34;5110654;28;20813;-76
2022/05/27 09:49:17;;;;;;;10.00;9.30;;;;;;;-143.84;44.36;44951.97;5110364;28;20842;-76
2022/05/27 09:51:44;;;;;;;12.67;11.30;;;;;;;-143.84;42.91;44967.19;5109361;28;20432;-76
2022/05/27 09:54:24;;;;;;;11.90;8.90;;;;;;;-143.84;43.91;44963.38;5108889;28;20482;-76
2022/05/27 09:57:02;;;;;;;11.80;9.57;;;;;;;-143.84;43.24;44951.97;5109799;28;20471;-76
2022/05/27 09:59:36;;;;;;;9.63;8.40;;;;;;;-143.84;42.95;44934.81;5109875;28;20447;-76
2022/05/27 10:02:22;;;;;;;11.40;7.30;;;;;;;-143.84;44.43;44953.88;5110080;28;21112;-76
2022/05/27 10:04:51;;;;;;;8.00;7.33;;;;;;;-143.84;43.87;44948.16;5109887;28;20455;-76
2022/05/27 10:07:26;;;;;;;11.97;10.97;;;;;;;-143.84;44.44;44936.72;5110166;28;20431;-76
2022/05/27 10:09:54;;;;;;;6.97;6.27;;;;;;;-143.84;43.83;44936.72;5109262;28;20508;-76
2022/05/27 10:12:35;;;;;;;8.97;8.03;;;;;;;-143.84;43.74;44955.75;5108999;28;20439;-76
2022/05/27 10:15:02;;;;;;;9.97;9.07;;;;;;;-143.84;44.38;44961.47;5109701;28;20498;-76
2022/05/27 10:17:35;;;;;;;8.07;7.47;;;;;;;-143.84;44.31;44938.63;5109681;28;20530;-76
2022/05/27 10:20:19;;;;;;;11.30;7.13;;;;;;;-143.84;44.96;44955.75;5109705;28;20442;-76
2022/05/27 10:23:02;;;;;;;7.93;6.47;;;;;;;-143.84;44.92;44927.19;5109798;28;20442;-76
2022/05/27 10:25:35;;;;;;;8.97;8.13;;;;;;;-143.84;41.91;44972.91;5110205;28;20458;-76
2022/05/27 10:28:06;;;;;;;7.37;6.40;;;;;;;-143.84;43.02;44955.75;5109602;28;20439;-76
2022/05/27 10:30:35;;;;;;;7.27;4.67;;;;;;;-143.84;44.90;44972.91;5109689;28;20851;-76
2022/05/27 10:33:19;;;;;;;5.50;4.97;;;;;;;-143.84;43.10;44969.09;5109434;28;20431;-76
2022/05/27 10:35:47;;;;;;;7.80;6.10;;;;;;;-143.84;44.67;44969.09;5109699;28;20426;-76
2022/05/27 10:38:37;;;;;;;4.83;4.37;;;;;;;-143.84;45.69;44961.47;5109831;28;20467;-76
2022/05/27 10:41:08;;;;;;;5.03;4.57;;;;;;;-143.84;45.92;44990.03;5109560;28;20464;-76
2022/05/27 10:43:55;;;;;;;6.70;5.33;;;;;;;-143.84;45.07;44951.97;5109354;28;20545;-76
2022/05/27 10:46:29;;;;;;;7.90;4.90;;;;;;;-143.84;46.03;44961.47;5109332;28;20486;-76
2022/05/27 10:49:16;;;;;;;10.30;4.70;;;;;;;-143.84;46.78;44923.41;5109046;28;20450;-76
2022/05/27 10:51:55;;;;;;;5.90;5.37;;;;;;;-143.84;45.49;44940.53;5109096;28;20435;-76
2022/05/27 10:54:41;;;;;;;4.47;4.17;;;;;;;-143.84;46.87;44969.09;5108475;28;20876;-76
2022/05/27 11:03:35;;;;;;;7.43;5.17;;;;;;;-143.84;48.82;44963.38;5109226;28;20499;-76
2022/05/27 11:06:25;;;;;;;5.10;4.60;;;;;;;-143.84;49.25;44955.75;5112196;28;20477;-76
2022/05/27 11:09:08;;;;;;;3.30;3.10;;;;;;;-143.84;49.01;44971.00;5113298;28;20518;-75
2022/05/27 11:11:44;;;;;;;3.60;3.30;;;;;;;-143.84;49.82;44984.31;5113322;28;20446;-76
2022/05/27 11:17:23;;;;;;;3.67;3.37;;;;;;;-143.84;49.97;44976.72;5112182;28;20426;-75
2022/05/27 11:20:13;;;;;;;5.63;3.90;;;;;;;-143.84;53.46;44988.13;5112791;28;20450;-76
2022/05/27 11:22:51;;;;;;;4.80;4.23;;;;;;;-143.84;52.08;44969.09;5112913;28;20496;-75
2022/05/27 11:25:37;;;;;;;4.97;4.10;;;;;;;-143.84;54.51;44997.66;5112766;28;20456;-75
2022/05/27 11:28:38;;;;;;;9.37;4.00;;;;;;;-143.84;54.94;44991.94;5112686;28;20503;-76
2022/05/27 11:31:17;;;;;;;4.60;4.17;;;;;;;-143.84;55.37;44984.31;5095813;28;20447;-76
2022/05/27 11:34:05;;;;;;;4.77;3.90;;;;;;;-143.84;52.09;44957.66;5112603;28;20481;-76
2022/05/27 11:36:45;;;;;;;3.93;3.33;;;;;;;-143.84;51.08;44984.31;5112349;28;20443;-76
2022/05/27 11:39:52;;;;;;;5.53;3.73;;;;;;;-143.84;49.29;44984.31;5112031;28;20427;-71
2022/05/27 11:42:41;;;;;;;5.97;3.67;;;;;;;-143.84;50.89;44953.88;5111420;28;20431;-71
2022/05/27 11:45:18;;;;;;;3.73;3.43;;;;;;;-143.84;54.40;44980.53;5111720;28;20443;-71
2022/05/27 11:47:58;;;;;;;9.93;3.40;;;;;;;-143.84;53.50;44957.66;5112165;28;20434;-71
2022/05/27 11:50:50;;;;;;;3.63;3.40;;;;;;;-143.84;53.05;44971.00;5111714;28;20435;-71
2022/05/27 11:53:46;;;;;;;8.20;3.90;;;;;;;-143.84;52.75;44967.19;5112710;28;20863;-76
2022/05/27 11:56:18;;;;;;;5.10;3.53;;;;;;;-143.84;51.10;44984.31;5111489;28;20439;-76
2022/05/27 11:58:52;;;;;;;3.63;3.30;;;;;;;-143.84;52.69;45012.88;5112388;28;20431;-75
2022/05/27 12:01:29;;;;;;;3.33;3.03;;;;;;;-143.84;56.84;44990.03;5112704;28;20885;-76
2022/05/27 12:04:05;;;;;;;3.07;2.73;;;;;;;-143.84;50.25;44995.75;5112363;27;21009;-76
2022/05/27 12:06:40;;;;;;;3.87;3.20;;;;;;;-143.84;52.86;44972.91;5112357;28;20858;-76